sensor_id;sensor_type;location;lat;lon;timestamp;pressure;altitude;pressure_sealevel;temperature;humidity
6833;BME280;3454;42.654;23.378;2022-07-06T00:02:24;94446.09;;;19.91;100.00
6833;BME280;3454;42.654;23.378;2022-07-06T00:04:50;94445.50;;;19.96;100.00
6833;BME280;3454;42.654;23.378;2022-07-06T00:07:16;94443.38;;;19.99;100.00
6833;BME280;3454;42.654;23.378;2022-07-06T00:09:41;94451.31;;;20.04;100.00
6833;BME280;3454;42.654;23.378;2022-07-06T00:12:07;94459.50;;;20.15;100.00
6833;BME280;3454;42.654;23.378;2022-07-06T00:14:33;94457.78;;;20.22;100.00
6833;BME280;3454;42.654;23.378;2022-07-06T00:16:58;94457.31;;;20.18;100.00
6833;BME280;3454;42.654;23.378;2022-07-06T00:19:24;94457.31;;;20.12;100.00
6833;BME280;3454;42.654;23.378;2022-07-06T00:21:49;94469.22;;;20.13;100.00
6833;BME280;3454;42.654;23.378;2022-07-06T00:24:14;94470.81;;;20.14;100.00
6833;BME280;3454;42.654;23.378;2022-07-06T00:26:43;94474.44;;;20.19;100.00
6833;BME280;3454;42.654;23.378;2022-07-06T00:29:08;94469.81;;;20.15;100.00
6833;BME280;3454;42.654;23.378;2022-07-06T00:31:34;94475.91;;;20.00;100.00
6833;BME280;3454;42.654;23.378;2022-07-06T00:33:59;94491.03;;;20.10;100.00
6833;BME280;3454;42.654;23.378;2022-07-06T00:36:25;94497.13;;;20.24;100.00
6833;BME280;3454;42.654;23.378;2022-07-06T00:38:50;94494.34;;;19.91;100.00
6833;BME280;3454;42.654;23.378;2022-07-06T00:41:22;94494.84;;;19.73;100.00
6833;BME280;3454;42.654;23.378;2022-07-06T00:43:53;94501.53;;;19.68;100.00
6833;BME280;3454;42.654;23.378;2022-07-06T00:46:23;94496.84;;;19.50;100.00
6833;BME280;3454;42.654;23.378;2022-07-06T00:48:50;94492.44;;;19.44;100.00
6833;BME280;3454;42.654;23.378;2022-07-06T00:51:16;94489.91;;;19.51;100.00
6833;BME280;3454;42.654;23.378;2022-07-06T00:53:42;94492.31;;;19.52;100.00
6833;BME280;3454;42.654;23.378;2022-07-06T00:56:08;94494.53;;;19.55;100.00
6833;BME280;3454;42.654;23.378;2022-07-06T00:58:35;94484.22;;;19.55;100.00
6833;BME280;3454;42.654;23.378;2022-07-06T01:01:01;94480.56;;;19.50;100.00
6833;BME280;3454;42.654;23.378;2022-07-06T01:03:27;94473.44;;;19.45;100.00
6833;BME280;3454;42.654;23.378;2022-07-06T01:05:52;94466.31;;;19.54;100.00
6833;BME280;3454;42.654;23.378;2022-07-06T01:08:18;94448.91;;;19.96;100.00
6833;BME280;3454;42.654;23.378;2022-07-06T01:10:43;94445.88;;;19.86;100.00
6833;BME280;3454;42.654;23.378;2022-07-06T01:13:09;94441.13;;;19.90;100.00
6833;BME280;3454;42.654;23.378;2022-07-06T01:15:35;94450.34;;;20.05;100.00
6833;BME280;3454;42.654;23.378;2022-07-06T01:18:00;94443.38;;;19.99;100.00
6833;BME280;3454;42.654;23.378;2022-07-06T01:20:26;94451.31;;;20.04;100.00
6833;BME280;3454;42.654;23.378;2022-07-06T01:22:54;94448.16;;;20.09;100.00
6833;BME280;3454;42.654;23.378;2022-07-06T01:25:21;94448.16;;;20.09;100.00
6833;BME280;3454;42.654;23.378;2022-07-06T01:27:47;94444.88;;;20.22;100.00
6833;BME280;3454;42.654;23.378;2022-07-06T01:30:14;94453.72;;;20.13;100.00
6833;BME280;3454;42.654;23.378;2022-07-06T01:32:41;94448.66;;;20.26;100.00
6833;BME280;3454;42.654;23.378;2022-07-06T01:35:09;94447.47;;;20.22;100.00
6833;BME280;3454;42.654;23.378;2022-07-06T01:37:35;94438.31;;;20.19;100.00
6833;BME280;3454;42.654;23.378;2022-07-06T01:40:03;94436.47;;;20.13;100.00
6833;BME280;3454;42.654;23.378;2022-07-06T01:42:30;94450.53;;;20.10;100.00
6833;BME280;3454;42.654;23.378;2022-07-06T01:44:56;94448.50;;;19.93;100.00
6833;BME280;3454;42.654;23.378;2022-07-06T01:47:22;94442.50;;;19.86;100.00
6833;BME280;3454;42.654;23.378;2022-07-06T01:49:48;94448.59;;;19.78;100.00
6833;BME280;3454;42.654;23.378;2022-07-06T01:52:13;94446.78;;;19.72;100.00
6833;BME280;3454;42.654;23.378;2022-07-06T01:54:39;94447.19;;;19.69;100.00
6833;BME280;3454;42.654;23.378;2022-07-06T01:57:05;94455.38;;;19.86;100.00
6833;BME280;3454;42.654;23.378;2022-07-06T01:59:30;94451.50;;;19.62;100.00
6833;BME280;3454;42.654;23.378;2022-07-06T02:01:56;94466.06;;;19.42;100.00
6833;BME280;3454;42.654;23.378;2022-07-06T02:04:21;94461.91;;;19.41;100.00
6833;BME280;3454;42.654;23.378;2022-07-06T02:06:47;94470.78;;;19.17;100.00
6833;BME280;3454;42.654;23.378;2022-07-06T02:09:12;94470.13;;;19.09;100.00
6833;BME280;3454;42.654;23.378;2022-07-06T02:11:38;94463.84;;;19.18;100.00
6833;BME280;3454;42.654;23.378;2022-07-06T02:14:03;94468.81;;;19.19;100.00
6833;BME280;3454;42.654;23.378;2022-07-06T02:16:29;94455.13;;;19.19;100.00
6833;BME280;3454;42.654;23.378;2022-07-06T02:18:54;94460.53;;;19.24;100.00
6833;BME280;3454;42.654;23.378;2022-07-06T02:21:20;94457.97;;;19.24;100.00
6833;BME280;3454;42.654;23.378;2022-07-06T02:23:45;94462.72;;;19.27;100.00
6833;BME280;3454;42.654;23.378;2022-07-06T02:26:11;94466.66;;;19.44;100.00
6833;BME280;3454;42.654;23.378;2022-07-06T02:28:36;94465.53;;;19.53;100.00
6833;BME280;3454;42.654;23.378;2022-07-06T02:31:01;94462.84;;;19.68;100.00
6833;BME280;3454;42.654;23.378;2022-07-06T02:33:27;94462.59;;;19.97;100.00
6833;BME280;3454;42.654;23.378;2022-07-06T02:35:53;94456.03;;;19.60;100.00
6833;BME280;3454;42.654;23.378;2022-07-06T02:38:18;94451.38;;;19.43;100.00
6833;BME280;3454;42.654;23.378;2022-07-06T02:40:44;94457.16;;;19.45;100.00
6833;BME280;3454;42.654;23.378;2022-07-06T02:43:09;94465.28;;;19.48;100.00
6833;BME280;3454;42.654;23.378;2022-07-06T02:45:35;94465.69;;;19.79;100.00
6833;BME280;3454;42.654;23.378;2022-07-06T02:48:01;94467.88;;;19.82;100.00
6833;BME280;3454;42.654;23.378;2022-07-06T02:50:26;94462.72;;;19.82;100.00
6833;BME280;3454;42.654;23.378;2022-07-06T02:52:52;94457.53;;;19.76;100.00
6833;BME280;3454;42.654;23.378;2022-07-06T02:55:17;94459.31;;;19.75;100.00
6833;BME280;3454;42.654;23.378;2022-07-06T02:57:43;94463.44;;;19.70;100.00
6833;BME280;3454;42.654;23.378;2022-07-06T03:00:09;94455.84;;;19.55;100.00
6833;BME280;3454;42.654;23.378;2022-07-06T03:02:36;94457.06;;;19.66;100.00
6833;BME280;3454;42.654;23.378;2022-07-06T03:05:02;94451.75;;;19.67;100.00
6833;BME280;3454;42.654;23.378;2022-07-06T03:07:27;94457.06;;;19.59;100.00
6833;BME280;3454;42.654;23.378;2022-07-06T03:09:53;94449.88;;;19.55;100.00
6833;BME280;3454;42.654;23.378;2022-07-06T03:12:18;94450.94;;;19.67;100.00
6833;BME280;3454;42.654;23.378;2022-07-06T03:14:44;94449.38;;;19.72;100.00
6833;BME280;3454;42.654;23.378;2022-07-06T03:17:09;94456.91;;;19.74;100.00
6833;BME280;3454;42.654;23.378;2022-07-06T03:19:35;94457.00;;;19.53;100.00
6833;BME280;3454;42.654;23.378;2022-07-06T03:22:00;94458.47;;;19.68;100.00
6833;BME280;3454;42.654;23.378;2022-07-06T03:24:26;94463.47;;;19.76;100.00
6833;BME280;3454;42.654;23.378;2022-07-06T03:26:51;94468.03;;;19.40;100.00
6833;BME280;3454;42.654;23.378;2022-07-06T03:29:17;94473.31;;;19.60;100.00
6833;BME280;3454;42.654;23.378;2022-07-06T03:31:43;94474.50;;;19.64;100.00
6833;BME280;3454;42.654;23.378;2022-07-06T03:34:08;94482.91;;;19.72;100.00
6833;BME280;3454;42.654;23.378;2022-07-06T03:36:34;94481.75;;;19.75;100.00
6833;BME280;3454;42.654;23.378;2022-07-06T03:39:00;94482.09;;;19.65;100.00
6833;BME280;3454;42.654;23.378;2022-07-06T03:41:25;94483.00;;;19.85;100.00
6833;BME280;3454;42.654;23.378;2022-07-06T03:43:50;94493.22;;;20.06;100.00
6833;BME280;3454;42.654;23.378;2022-07-06T03:46:16;94487.09;;;20.07;100.00
6833;BME280;3454;42.654;23.378;2022-07-06T03:48:41;94490.34;;;20.23;100.00
6833;BME280;3454;42.654;23.378;2022-07-06T03:51:07;94487.47;;;20.52;100.00
6833;BME280;3454;42.654;23.378;2022-07-06T03:53:33;94486.97;;;20.89;100.00
6833;BME280;3454;42.654;23.378;2022-07-06T03:55:58;94494.19;;;21.26;100.00
6833;BME280;3454;42.654;23.378;2022-07-06T03:58:42;94496.97;;;21.51;100.00
6833;BME280;3454;42.654;23.378;2022-07-06T04:01:08;94497.13;;;21.75;100.00
6833;BME280;3454;42.654;23.378;2022-07-06T04:03:33;94490.72;;;22.04;100.00
6833;BME280;3454;42.654;23.378;2022-07-06T04:05:59;94488.84;;;22.31;100.00
6833;BME280;3454;42.654;23.378;2022-07-06T04:08:24;94510.06;;;22.66;100.00
6833;BME280;3454;42.654;23.378;2022-07-06T04:10:49;94516.22;;;22.71;100.00
6833;BME280;3454;42.654;23.378;2022-07-06T04:13:15;94502.66;;;22.69;100.00
6833;BME280;3454;42.654;23.378;2022-07-06T04:15:41;94520.19;;;22.74;100.00
6833;BME280;3454;42.654;23.378;2022-07-06T04:18:06;94529.53;;;22.75;100.00
6833;BME280;3454;42.654;23.378;2022-07-06T04:20:32;94578.66;;;22.63;100.00
6833;BME280;3454;42.654;23.378;2022-07-06T04:22:57;94537.78;;;22.65;100.00
6833;BME280;3454;42.654;23.378;2022-07-06T04:25:24;94562.50;;;22.54;100.00
6833;BME280;3454;42.654;23.378;2022-07-06T04:27:49;94526.69;;;22.38;100.00
6833;BME280;3454;42.654;23.378;2022-07-06T04:30:14;94544.88;;;22.12;100.00
6833;BME280;3454;42.654;23.378;2022-07-06T04:32:41;94520.03;;;21.65;100.00
6833;BME280;3454;42.654;23.378;2022-07-06T04:35:07;94534.00;;;21.45;100.00
6833;BME280;3454;42.654;23.378;2022-07-06T04:37:32;94510.28;;;21.15;100.00
6833;BME280;3454;42.654;23.378;2022-07-06T04:39:58;94527.22;;;21.24;100.00
6833;BME280;3454;42.654;23.378;2022-07-06T04:42:24;94506.50;;;21.11;100.00
6833;BME280;3454;42.654;23.378;2022-07-06T04:44:49;94535.16;;;21.29;100.00
6833;BME280;3454;42.654;23.378;2022-07-06T04:47:17;94511.41;;;20.80;100.00
6833;BME280;3454;42.654;23.378;2022-07-06T04:49:42;94505.16;;;20.14;100.00
6833;BME280;3454;42.654;23.378;2022-07-06T04:52:07;94517.91;;;19.81;100.00
6833;BME280;3454;42.654;23.378;2022-07-06T04:54:33;94518.38;;;19.36;100.00
6833;BME280;3454;42.654;23.378;2022-07-06T04:56:58;94536.66;;;19.41;100.00
6833;BME280;3454;42.654;23.378;2022-07-06T04:59:24;94529.16;;;19.46;100.00
6833;BME280;3454;42.654;23.378;2022-07-06T05:01:49;94540.75;;;19.57;100.00
6833;BME280;3454;42.654;23.378;2022-07-06T05:04:15;94541.56;;;19.57;100.00
6833;BME280;3454;42.654;23.378;2022-07-06T05:06:43;94551.41;;;19.54;100.00
6833;BME280;3454;42.654;23.378;2022-07-06T05:09:09;94550.88;;;19.58;100.00
6833;BME280;3454;42.654;23.378;2022-07-06T05:11:34;94553.91;;;19.68;100.00
6833;BME280;3454;42.654;23.378;2022-07-06T05:14:00;94558.09;;;19.69;100.00
6833;BME280;3454;42.654;23.378;2022-07-06T05:16:26;94564.50;;;19.52;100.00
6833;BME280;3454;42.654;23.378;2022-07-06T05:18:52;94546.94;;;19.20;100.00
6833;BME280;3454;42.654;23.378;2022-07-06T05:21:17;94549.22;;;19.08;100.00
6833;BME280;3454;42.654;23.378;2022-07-06T05:23:43;94567.06;;;19.31;100.00
6833;BME280;3454;42.654;23.378;2022-07-06T05:26:08;94556.13;;;19.29;100.00
6833;BME280;3454;42.654;23.378;2022-07-06T05:28:34;94562.66;;;19.25;100.00
6833;BME280;3454;42.654;23.378;2022-07-06T05:30:59;94574.13;;;19.37;100.00
6833;BME280;3454;42.654;23.378;2022-07-06T05:33:27;94573.53;;;19.42;100.00
6833;BME280;3454;42.654;23.378;2022-07-06T05:35:53;94577.94;;;19.48;100.00
6833;BME280;3454;42.654;23.378;2022-07-06T05:38:18;94574.81;;;19.52;100.00
6833;BME280;3454;42.654;23.378;2022-07-06T05:40:45;94566.22;;;19.66;100.00
6833;BME280;3454;42.654;23.378;2022-07-06T05:43:10;94580.66;;;19.88;100.00
6833;BME280;3454;42.654;23.378;2022-07-06T05:45:36;94586.69;;;19.95;100.00
6833;BME280;3454;42.654;23.378;2022-07-06T05:48:01;94592.44;;;19.97;100.00
6833;BME280;3454;42.654;23.378;2022-07-06T05:50:45;94612.41;;;20.17;100.00
6833;BME280;3454;42.654;23.378;2022-07-06T05:53:11;94602.66;;;20.40;100.00
6833;BME280;3454;42.654;23.378;2022-07-06T05:55:36;94598.13;;;20.48;100.00
6833;BME280;3454;42.654;23.378;2022-07-06T05:58:02;94599.00;;;20.62;100.00
6833;BME280;3454;42.654;23.378;2022-07-06T06:00:29;94620.31;;;20.70;100.00
6833;BME280;3454;42.654;23.378;2022-07-06T06:02:55;94606.63;;;20.36;100.00
6833;BME280;3454;42.654;23.378;2022-07-06T06:05:21;94590.97;;;20.44;100.00
6833;BME280;3454;42.654;23.378;2022-07-06T06:07:46;94596.13;;;20.50;100.00
6833;BME280;3454;42.654;23.378;2022-07-06T06:10:14;94597.00;;;20.23;100.00
6833;BME280;3454;42.654;23.378;2022-07-06T06:12:41;94588.03;;;20.19;100.00
6833;BME280;3454;42.654;23.378;2022-07-06T06:15:08;94579.41;;;20.05;100.00
6833;BME280;3454;42.654;23.378;2022-07-06T06:17:35;94581.50;;;19.95;100.00
6833;BME280;3454;42.654;23.378;2022-07-06T06:20:02;94574.53;;;19.89;100.00
6833;BME280;3454;42.654;23.378;2022-07-06T06:22:28;94580.19;;;19.78;100.00
6833;BME280;3454;42.654;23.378;2022-07-06T06:24:54;94582.09;;;19.70;100.00
6833;BME280;3454;42.654;23.378;2022-07-06T06:27:19;94574.56;;;19.68;100.00
6833;BME280;3454;42.654;23.378;2022-07-06T06:29:45;94575.03;;;19.78;100.00
6833;BME280;3454;42.654;23.378;2022-07-06T06:32:11;94582.97;;;19.77;100.00
6833;BME280;3454;42.654;23.378;2022-07-06T06:34:38;94592.88;;;19.73;100.00
6833;BME280;3454;42.654;23.378;2022-07-06T06:37:03;94586.44;;;19.63;100.00
6833;BME280;3454;42.654;23.378;2022-07-06T06:39:29;94573.19;;;19.72;100.00
6833;BME280;3454;42.654;23.378;2022-07-06T06:41:54;94578.81;;;19.82;100.00
6833;BME280;3454;42.654;23.378;2022-07-06T06:44:20;94572.34;;;19.93;100.00
6833;BME280;3454;42.654;23.378;2022-07-06T06:46:48;94576.38;;;20.02;100.00
6833;BME280;3454;42.654;23.378;2022-07-06T06:49:14;94577.38;;;20.01;100.00
6833;BME280;3454;42.654;23.378;2022-07-06T06:51:39;94585.47;;;19.91;100.00
6833;BME280;3454;42.654;23.378;2022-07-06T06:54:05;94584.91;;;20.02;100.00
6833;BME280;3454;42.654;23.378;2022-07-06T06:56:30;94573.53;;;19.90;100.00
6833;BME280;3454;42.654;23.378;2022-07-06T06:58:56;94582.72;;;19.99;100.00
6833;BME280;3454;42.654;23.378;2022-07-06T07:01:21;94569.69;;;20.07;100.00
6833;BME280;3454;42.654;23.378;2022-07-06T07:03:47;94593.53;;;20.09;100.00
6833;BME280;3454;42.654;23.378;2022-07-06T07:06:12;94580.59;;;20.09;100.00
6833;BME280;3454;42.654;23.378;2022-07-06T07:08:38;94587.19;;;20.19;100.00
6833;BME280;3454;42.654;23.378;2022-07-06T07:11:03;94597.25;;;20.35;100.00
6833;BME280;3454;42.654;23.378;2022-07-06T07:13:29;94595.53;;;20.48;100.00
6833;BME280;3454;42.654;23.378;2022-07-06T07:15:54;94588.81;;;20.54;100.00
6833;BME280;3454;42.654;23.378;2022-07-06T07:18:20;94594.63;;;20.62;100.00
6833;BME280;3454;42.654;23.378;2022-07-06T07:20:45;94590.75;;;20.45;100.00
6833;BME280;3454;42.654;23.378;2022-07-06T07:23:11;94605.00;;;20.35;100.00
6833;BME280;3454;42.654;23.378;2022-07-06T07:25:36;94611.53;;;20.31;100.00
6833;BME280;3454;42.654;23.378;2022-07-06T07:28:04;94595.44;;;20.29;100.00
6833;BME280;3454;42.654;23.378;2022-07-06T07:30:29;94593.84;;;20.28;100.00
6833;BME280;3454;42.654;23.378;2022-07-06T07:32:55;94586.97;;;20.41;100.00
6833;BME280;3454;42.654;23.378;2022-07-06T07:35:21;94590.72;;;20.39;100.00
6833;BME280;3454;42.654;23.378;2022-07-06T07:37:47;94582.75;;;20.34;100.00
6833;BME280;3454;42.654;23.378;2022-07-06T07:40:12;94582.63;;;20.48;100.00
6833;BME280;3454;42.654;23.378;2022-07-06T07:42:37;94581.47;;;20.57;100.00
6833;BME280;3454;42.654;23.378;2022-07-06T07:45:06;94625.63;;;20.62;100.00
6833;BME280;3454;42.654;23.378;2022-07-06T07:47:32;94608.13;;;20.58;100.00
6833;BME280;3454;42.654;23.378;2022-07-06T07:49:57;94598.22;;;20.68;100.00
6833;BME280;3454;42.654;23.378;2022-07-06T07:52:23;94604.84;;;20.83;100.00
6833;BME280;3454;42.654;23.378;2022-07-06T07:54:48;94603.06;;;20.84;100.00
6833;BME280;3454;42.654;23.378;2022-07-06T07:57:14;94582.34;;;20.77;100.00
6833;BME280;3454;42.654;23.378;2022-07-06T07:59:39;94593.09;;;20.81;100.00
6833;BME280;3454;42.654;23.378;2022-07-06T08:02:05;94600.41;;;20.71;100.00
6833;BME280;3454;42.654;23.378;2022-07-06T08:04:31;94591.66;;;20.65;100.00
6833;BME280;3454;42.654;23.378;2022-07-06T08:06:57;94593.06;;;20.68;100.00
6833;BME280;3454;42.654;23.378;2022-07-06T08:09:22;94608.19;;;20.77;100.00
6833;BME280;3454;42.654;23.378;2022-07-06T08:11:47;94595.53;;;20.96;100.00
6833;BME280;3454;42.654;23.378;2022-07-06T08:14:13;94585.09;;;21.17;100.00
6833;BME280;3454;42.654;23.378;2022-07-06T08:16:39;94655.31;;;21.20;100.00
6833;BME280;3454;42.654;23.378;2022-07-06T08:19:05;94636.38;;;21.13;100.00
6833;BME280;3454;42.654;23.378;2022-07-06T08:21:30;94618.09;;;21.15;100.00
6833;BME280;3454;42.654;23.378;2022-07-06T08:23:56;94629.25;;;21.22;100.00
6833;BME280;3454;42.654;23.378;2022-07-06T08:26:22;94610.59;;;21.33;100.00
6833;BME280;3454;42.654;23.378;2022-07-06T08:28:48;94609.41;;;21.48;100.00
6833;BME280;3454;42.654;23.378;2022-07-06T08:31:13;94659.56;;;21.41;100.00
6833;BME280;3454;42.654;23.378;2022-07-06T08:33:39;94644.81;;;21.48;100.00
6833;BME280;3454;42.654;23.378;2022-07-06T08:36:04;94639.66;;;21.54;100.00
6833;BME280;3454;42.654;23.378;2022-07-06T08:38:30;94619.38;;;21.64;100.00
6833;BME280;3454;42.654;23.378;2022-07-06T08:40:56;94644.50;;;21.84;100.00
6833;BME280;3454;42.654;23.378;2022-07-06T08:43:22;94652.84;;;21.86;100.00
6833;BME280;3454;42.654;23.378;2022-07-06T08:45:50;94662.22;;;21.87;100.00
6833;BME280;3454;42.654;23.378;2022-07-06T08:48:18;94649.47;;;22.05;100.00
6833;BME280;3454;42.654;23.378;2022-07-06T08:50:47;94658.88;;;22.06;100.00
6833;BME280;3454;42.654;23.378;2022-07-06T08:53:14;94639.94;;;22.05;100.00
6833;BME280;3454;42.654;23.378;2022-07-06T08:55:39;94633.75;;;22.26;100.00
6833;BME280;3454;42.654;23.378;2022-07-06T08:58:07;94672.16;;;22.62;100.00
6833;BME280;3454;42.654;23.378;2022-07-06T09:00:32;94636.88;;;23.11;100.00
6833;BME280;3454;42.654;23.378;2022-07-06T09:02:59;94660.00;;;23.19;100.00
6833;BME280;3454;42.654;23.378;2022-07-06T09:05:25;94685.56;;;23.16;100.00
6833;BME280;3454;42.654;23.378;2022-07-06T09:07:57;94708.94;;;23.09;100.00
6833;BME280;3454;42.654;23.378;2022-07-06T09:10:23;94690.53;;;23.17;100.00
6833;BME280;3454;42.654;23.378;2022-07-06T09:12:48;94707.75;;;23.56;100.00
6833;BME280;3454;42.654;23.378;2022-07-06T09:15:14;94703.41;;;23.50;100.00
6833;BME280;3454;42.654;23.378;2022-07-06T09:17:42;94694.41;;;23.53;100.00
6833;BME280;3454;42.654;23.378;2022-07-06T09:20:09;94664.75;;;23.29;100.00
6833;BME280;3454;42.654;23.378;2022-07-06T09:22:35;94641.25;;;23.17;100.00
6833;BME280;3454;42.654;23.378;2022-07-06T09:25:04;94638.75;;;22.98;100.00
6833;BME280;3454;42.654;23.378;2022-07-06T09:27:31;94612.25;;;22.89;100.00
6833;BME280;3454;42.654;23.378;2022-07-06T09:29:59;94626.97;;;23.02;100.00
6833;BME280;3454;42.654;23.378;2022-07-06T09:32:26;94647.16;;;23.38;100.00
6833;BME280;3454;42.654;23.378;2022-07-06T09:34:51;94645.72;;;23.48;100.00
6833;BME280;3454;42.654;23.378;2022-07-06T09:37:16;94655.78;;;23.69;100.00
6833;BME280;3454;42.654;23.378;2022-07-06T09:39:43;94665.50;;;23.43;100.00
6833;BME280;3454;42.654;23.378;2022-07-06T09:42:10;94698.59;;;23.54;100.00
6833;BME280;3454;42.654;23.378;2022-07-06T09:44:40;94670.81;;;23.61;100.00
6833;BME280;3454;42.654;23.378;2022-07-06T09:47:08;94642.56;;;23.40;100.00
6833;BME280;3454;42.654;23.378;2022-07-06T09:49:35;94652.91;;;23.46;100.00
6833;BME280;3454;42.654;23.378;2022-07-06T09:52:03;94640.03;;;23.33;100.00
6833;BME280;3454;42.654;23.378;2022-07-06T09:54:29;94617.41;;;23.40;100.00
6833;BME280;3454;42.654;23.378;2022-07-06T09:56:56;94584.50;;;23.65;100.00
6833;BME280;3454;42.654;23.378;2022-07-06T09:59:27;94621.38;;;23.49;100.00
6833;BME280;3454;42.654;23.378;2022-07-06T10:01:56;94655.59;;;23.64;100.00
6833;BME280;3454;42.654;23.378;2022-07-06T10:04:23;94666.44;;;23.55;100.00
6833;BME280;3454;42.654;23.378;2022-07-06T10:06:49;94667.28;;;23.49;100.00
6833;BME280;3454;42.654;23.378;2022-07-06T10:09:15;94650.34;;;23.40;100.00
6833;BME280;3454;42.654;23.378;2022-07-06T10:11:44;94631.59;;;23.38;100.00
6833;BME280;3454;42.654;23.378;2022-07-06T10:14:12;94635.00;;;23.69;100.00
6833;BME280;3454;42.654;23.378;2022-07-06T10:16:39;94642.50;;;24.08;100.00
6833;BME280;3454;42.654;23.378;2022-07-06T10:19:09;94724.97;;;24.20;100.00
6833;BME280;3454;42.654;23.378;2022-07-06T10:21:36;94691.50;;;24.05;100.00
6833;BME280;3454;42.654;23.378;2022-07-06T10:24:04;94680.66;;;23.83;100.00
6833;BME280;3454;42.654;23.378;2022-07-06T10:26:30;94691.06;;;24.08;100.00
6833;BME280;3454;42.654;23.378;2022-07-06T10:28:58;94689.09;;;24.28;100.00
6833;BME280;3454;42.654;23.378;2022-07-06T10:31:25;94689.75;;;23.92;100.00
6833;BME280;3454;42.654;23.378;2022-07-06T10:33:52;94671.09;;;24.08;100.00
6833;BME280;3454;42.654;23.378;2022-07-06T10:36:18;94698.81;;;24.14;100.00
6833;BME280;3454;42.654;23.378;2022-07-06T10:38:49;94686.38;;;24.66;100.00
6833;BME280;3454;42.654;23.378;2022-07-06T10:41:15;94718.28;;;24.79;99.06
6833;BME280;3454;42.654;23.378;2022-07-06T10:43:45;94708.03;;;24.84;100.00
6833;BME280;3454;42.654;23.378;2022-07-06T10:46:13;94723.88;;;24.58;97.99
6833;BME280;3454;42.654;23.378;2022-07-06T10:48:40;94728.75;;;24.91;97.36
6833;BME280;3454;42.654;23.378;2022-07-06T10:51:06;94718.16;;;25.11;98.15
6833;BME280;3454;42.654;23.378;2022-07-06T10:53:35;94723.00;;;25.07;97.39
6833;BME280;3454;42.654;23.378;2022-07-06T10:56:06;94703.47;;;24.80;98.30
6833;BME280;3454;42.654;23.378;2022-07-06T10:58:35;94696.78;;;24.90;98.13
6833;BME280;3454;42.654;23.378;2022-07-06T11:01:01;94745.06;;;25.05;95.59
6833;BME280;3454;42.654;23.378;2022-07-06T11:03:37;94736.38;;;24.92;95.25
6833;BME280;3454;42.654;23.378;2022-07-06T11:06:19;94733.63;;;25.24;95.06
6833;BME280;3454;42.654;23.378;2022-07-06T11:08:59;94743.34;;;25.53;95.15
6833;BME280;3454;42.654;23.378;2022-07-06T11:19:21;94710.59;;;24.66;94.96
6833;BME280;3454;42.654;23.378;2022-07-06T11:22:05;94696.19;;;25.07;95.74
6833;BME280;3454;42.654;23.378;2022-07-06T11:24:33;94694.28;;;24.77;95.58
6833;BME280;3454;42.654;23.378;2022-07-06T11:27:00;94714.91;;;24.97;94.28
6833;BME280;3454;42.654;23.378;2022-07-06T11:29:28;94732.66;;;24.82;91.96
6833;BME280;3454;42.654;23.378;2022-07-06T11:31:58;94722.22;;;25.07;93.56
6833;BME280;3454;42.654;23.378;2022-07-06T11:34:33;94680.13;;;25.75;95.67
6833;BME280;3454;42.654;23.378;2022-07-06T11:37:02;94786.50;;;25.60;86.90
6833;BME280;3454;42.654;23.378;2022-07-06T11:39:32;94778.38;;;25.68;84.81
6833;BME280;3454;42.654;23.378;2022-07-06T11:41:58;94730.44;;;25.40;78.16
6833;BME280;3454;42.654;23.378;2022-07-06T11:44:26;94725.97;;;25.29;77.47
6833;BME280;3454;42.654;23.378;2022-07-06T11:46:52;94724.25;;;25.41;77.91
6833;BME280;3454;42.654;23.378;2022-07-06T11:49:20;94727.91;;;25.51;76.13
6833;BME280;3454;42.654;23.378;2022-07-06T11:51:46;94728.47;;;25.53;75.67
6833;BME280;3454;42.654;23.378;2022-07-06T11:54:17;94755.47;;;25.59;74.28
6833;BME280;3454;42.654;23.378;2022-07-06T11:59:11;94714.53;;;25.48;74.85
6833;BME280;3454;42.654;23.378;2022-07-06T12:01:37;94734.06;;;25.21;73.40
6833;BME280;3454;42.654;23.378;2022-07-06T12:04:06;94704.06;;;25.18;74.27
6833;BME280;3454;42.654;23.378;2022-07-06T12:06:33;94710.50;;;25.16;74.09
6833;BME280;3454;42.654;23.378;2022-07-06T12:08:59;94761.53;;;25.35;71.32
6833;BME280;3454;42.654;23.378;2022-07-06T12:11:30;94743.63;;;25.45;71.59
6833;BME280;3454;42.654;23.378;2022-07-06T12:14:00;94783.25;;;25.47;70.04
6833;BME280;3454;42.654;23.378;2022-07-06T12:16:32;94779.19;;;25.69;70.21
6833;BME280;3454;42.654;23.378;2022-07-06T12:19:00;94783.66;;;25.80;69.35
6833;BME280;3454;42.654;23.378;2022-07-06T12:21:25;94789.28;;;25.95;69.05
6833;BME280;3454;42.654;23.378;2022-07-06T12:23:52;94751.22;;;25.76;70.29
6833;BME280;3454;42.654;23.378;2022-07-06T12:26:21;94739.19;;;26.23;70.84
6833;BME280;3454;42.654;23.378;2022-07-06T12:29:10;94759.22;;;25.93;69.41
6833;BME280;3454;42.654;23.378;2022-07-06T12:31:43;94738.84;;;25.90;69.95
6833;BME280;3454;42.654;23.378;2022-07-06T12:34:14;94792.16;;;26.05;67.29
6833;BME280;3454;42.654;23.378;2022-07-06T12:36:48;94769.31;;;25.89;68.28
6833;BME280;3454;42.654;23.378;2022-07-06T12:39:16;94742.25;;;26.31;68.92
6833;BME280;3454;42.654;23.378;2022-07-06T12:41:54;94778.34;;;26.57;67.82
6833;BME280;3454;42.654;23.378;2022-07-06T12:44:24;94741.38;;;26.60;69.07
6833;BME280;3454;42.654;23.378;2022-07-06T12:47:00;94779.41;;;26.68;67.42
6833;BME280;3454;42.654;23.378;2022-07-06T12:49:26;94766.69;;;26.60;67.34
6833;BME280;3454;42.654;23.378;2022-07-06T12:51:57;94769.72;;;26.69;66.27
6833;BME280;3454;42.654;23.378;2022-07-06T12:54:25;94750.13;;;27.01;67.09
6833;BME280;3454;42.654;23.378;2022-07-06T12:57:10;94746.16;;;26.63;66.81
6833;BME280;3454;42.654;23.378;2022-07-06T12:59:53;94686.75;;;26.01;69.07
6833;BME280;3454;42.654;23.378;2022-07-06T13:02:25;94683.69;;;26.04;69.49
6833;BME280;3454;42.654;23.378;2022-07-06T13:07:25;94773.38;;;26.15;65.79
6833;BME280;3454;42.654;23.378;2022-07-06T13:09:50;94779.75;;;26.19;64.37
6833;BME280;3454;42.654;23.378;2022-07-06T13:12:16;94779.19;;;26.28;63.83
6833;BME280;3454;42.654;23.378;2022-07-06T13:14:41;94772.72;;;26.19;63.46